createdAt,value
2022-10-14T00:00:35.059Z,0.00
2022-10-14T00:01:35.058Z,0.00
2022-10-14T00:02:34.997Z,0.00
2022-10-14T00:03:34.978Z,0.00
2022-10-14T00:04:34.982Z,0.00
2022-10-14T00:05:35.022Z,0.00
2022-10-14T00:06:34.971Z,0.00
2022-10-14T00:07:34.957Z,0.00
2022-10-14T00:08:34.916Z,0.00
2022-10-14T00:09:34.926Z,0.00
2022-10-14T00:10:34.966Z,0.00
2022-10-14T00:11:34.905Z,0.00
2022-10-14T00:12:34.876Z,0.00
2022-10-14T00:13:34.859Z,0.00
2022-10-14T00:14:34.862Z,0.00
2022-10-14T00:15:34.913Z,0.00
2022-10-14T00:16:34.815Z,0.00
2022-10-14T00:17:34.806Z,0.00
2022-10-14T00:18:34.826Z,0.00
2022-10-14T00:19:34.786Z,0.00
2022-10-14T00:20:34.834Z,0.00
2022-10-14T00:21:34.798Z,0.00
2022-10-14T00:22:34.756Z,0.00
2022-10-14T00:23:34.766Z,0.00
2022-10-14T00:24:34.749Z,0.00
2022-10-14T00:25:34.777Z,0.00
2022-10-14T00:26:34.729Z,0.00
2022-10-14T00:27:34.702Z,0.00
2022-10-14T00:28:34.752Z,0.00
2022-10-14T00:29:34.691Z,0.00
2022-10-14T00:30:34.719Z,0.00
2022-10-14T00:31:34.662Z,0.00
2022-10-14T00:32:34.650Z,0.00
2022-10-14T00:33:34.642Z,0.00
2022-10-14T00:34:34.623Z,0.00
2022-10-14T00:35:34.662Z,0.00
2022-10-14T00:36:34.607Z,0.00
2022-10-14T00:37:34.599Z,0.00
2022-10-14T00:38:34.577Z,0.00
2022-10-14T00:39:34.574Z,0.00
2022-10-14T00:40:34.601Z,0.00
2022-10-14T00:41:34.567Z,0.00
2022-10-14T00:42:34.548Z,0.00
2022-10-14T00:43:34.528Z,0.00
2022-10-14T00:44:34.511Z,0.00
2022-10-14T00:45:34.530Z,0.00
2022-10-14T00:46:34.475Z,0.00
2022-10-14T00:47:34.484Z,0.00
2022-10-14T00:48:34.459Z,0.00
2022-10-14T00:49:34.464Z,0.00
2022-10-14T00:50:34.470Z,0.00
2022-10-14T00:51:34.448Z,0.00
2022-10-14T00:52:34.453Z,0.00
2022-10-14T00:53:34.419Z,0.00
2022-10-14T00:54:34.399Z,0.00
2022-10-14T00:55:34.439Z,0.00
2022-10-14T00:56:34.397Z,0.00
2022-10-14T00:57:34.380Z,0.00
2022-10-14T00:58:34.356Z,0.00
2022-10-14T00:59:34.343Z,0.00
2022-10-14T01:00:34.433Z,0.00
2022-10-14T01:01:34.336Z,0.00
2022-10-14T01:02:34.323Z,0.00
2022-10-14T01:03:34.308Z,0.00
2022-10-14T01:04:34.282Z,0.00
2022-10-14T01:05:34.324Z,0.00
2022-10-14T01:06:34.254Z,0.00
2022-10-14T01:07:34.268Z,0.00
2022-10-14T01:08:34.230Z,0.00
2022-10-14T01:09:34.243Z,0.00
2022-10-14T01:10:34.290Z,0.00
2022-10-14T01:11:34.210Z,0.00
2022-10-14T01:12:34.196Z,0.00
2022-10-14T01:13:34.177Z,0.00
2022-10-14T01:14:34.159Z,0.00
2022-10-14T01:15:34.197Z,0.00
2022-10-14T01:16:34.152Z,0.00
2022-10-14T01:17:34.126Z,0.00
2022-10-14T01:18:34.143Z,0.00
2022-10-14T01:19:34.117Z,0.00
2022-10-14T01:20:34.161Z,0.00
2022-10-14T01:21:34.110Z,0.00
2022-10-14T01:22:34.103Z,0.00
2022-10-14T01:23:34.076Z,0.00
2022-10-14T01:24:34.061Z,0.00
2022-10-14T01:25:34.117Z,0.00
2022-10-14T01:26:34.042Z,0.00
2022-10-14T01:27:34.040Z,0.00
2022-10-14T01:28:34.086Z,0.00
2022-10-14T01:29:34.021Z,0.00
2022-10-14T01:30:34.030Z,0.00
2022-10-14T01:31:34.007Z,0.00
2022-10-14T01:32:33.980Z,0.00
2022-10-14T01:33:33.966Z,0.00
2022-10-14T01:34:33.955Z,0.00
2022-10-14T01:35:34.025Z,0.00
2022-10-14T01:36:33.949Z,0.00
2022-10-14T01:37:33.924Z,0.00
2022-10-14T01:38:33.956Z,0.00
2022-10-14T01:39:33.905Z,0.00
2022-10-14T01:40:33.964Z,0.00
2022-10-14T01:41:33.885Z,0.00
2022-10-14T01:42:33.854Z,0.00
2022-10-14T01:43:33.867Z,0.00
2022-10-14T01:44:33.834Z,0.00
2022-10-14T01:45:33.869Z,0.00
2022-10-14T01:46:33.810Z,0.00
2022-10-14T01:47:33.809Z,0.00
2022-10-14T01:48:33.805Z,0.00
2022-10-14T01:49:33.809Z,0.00
2022-10-14T01:50:33.841Z,0.00
2022-10-14T01:51:33.762Z,0.00
2022-10-14T01:52:33.764Z,0.00
2022-10-14T01:53:33.750Z,0.00
2022-10-14T01:54:33.749Z,0.00
2022-10-14T01:55:33.772Z,0.00
2022-10-14T01:56:37.059Z,0.00
2022-10-14T01:57:34.702Z,0.00
2022-10-14T01:58:33.697Z,0.00
2022-10-14T01:59:33.680Z,0.00
2022-10-14T02:00:33.711Z,0.00
2022-10-14T02:01:33.737Z,0.00
2022-10-14T02:02:33.648Z,0.00
2022-10-14T02:03:33.647Z,0.00
2022-10-14T02:04:33.684Z,0.00
2022-10-14T02:05:33.650Z,0.00
2022-10-14T02:06:33.595Z,0.00
2022-10-14T02:07:33.607Z,0.00
2022-10-14T02:08:33.575Z,0.00
2022-10-14T02:09:33.560Z,0.00
2022-10-14T02:10:33.589Z,0.00
2022-10-14T02:11:33.546Z,0.00
2022-10-14T02:12:33.536Z,0.00
2022-10-14T02:13:33.520Z,0.00
2022-10-14T02:14:33.526Z,0.00
2022-10-14T02:15:33.528Z,0.00
2022-10-14T02:16:33.468Z,0.00
2022-10-14T02:17:33.467Z,0.00
2022-10-14T02:18:33.477Z,0.00
2022-10-14T02:19:33.459Z,0.00
2022-10-14T02:20:33.491Z,0.00
2022-10-14T02:21:33.548Z,0.00
2022-10-14T02:22:33.419Z,0.00
2022-10-14T02:23:33.403Z,0.00
2022-10-14T02:24:33.433Z,0.00
2022-10-14T02:25:33.433Z,0.00
2022-10-14T02:26:33.378Z,0.00
2022-10-14T02:27:33.366Z,0.00
2022-10-14T02:28:33.414Z,0.00
2022-10-14T02:29:33.354Z,0.00
2022-10-14T02:30:33.372Z,0.00
2022-10-14T02:31:33.313Z,0.00
2022-10-14T02:32:33.322Z,0.00
2022-10-14T02:33:33.323Z,0.00
2022-10-14T02:34:33.296Z,0.00
2022-10-14T02:35:33.347Z,0.00
2022-10-14T02:36:33.281Z,0.00
2022-10-14T02:37:33.256Z,0.00
2022-10-14T02:38:33.235Z,0.00
2022-10-14T02:39:33.242Z,0.00
2022-10-14T02:40:33.271Z,0.00
2022-10-14T02:41:33.216Z,0.00
2022-10-14T02:42:33.196Z,0.00
2022-10-14T02:43:33.212Z,0.00
2022-10-14T02:44:33.176Z,0.00
2022-10-14T02:45:33.205Z,0.00
2022-10-14T02:46:33.149Z,0.00
2022-10-14T02:47:33.143Z,0.00
2022-10-14T02:48:33.135Z,0.00
2022-10-14T02:49:33.125Z,0.00
2022-10-14T02:50:33.156Z,0.00
2022-10-14T02:51:33.095Z,0.00
2022-10-14T02:52:33.098Z,0.00
2022-10-14T02:53:33.084Z,0.00
2022-10-14T02:54:33.076Z,0.00
2022-10-14T02:55:33.118Z,0.00
2022-10-14T02:56:33.061Z,0.00
2022-10-14T02:57:33.051Z,0.00
2022-10-14T02:58:33.029Z,0.00
2022-10-14T02:59:33.015Z,0.00
2022-10-14T03:00:33.055Z,0.00
2022-10-14T03:01:37.337Z,0.00
2022-10-14T03:02:33.969Z,0.00
2022-10-14T03:03:32.980Z,0.00
2022-10-14T03:04:32.959Z,0.00
2022-10-14T03:05:32.992Z,0.00
2022-10-14T03:06:32.929Z,0.00
2022-10-14T03:07:32.938Z,0.00
2022-10-14T03:08:32.913Z,0.00
2022-10-14T03:09:32.913Z,0.00
2022-10-14T03:10:32.923Z,0.00
2022-10-14T03:11:32.929Z,0.00
2022-10-14T03:12:32.883Z,0.00
2022-10-14T03:13:32.859Z,0.00
2022-10-14T03:14:32.843Z,0.00
2022-10-14T03:15:32.828Z,0.00
2022-10-14T03:16:32.858Z,0.00
2022-10-14T03:17:32.798Z,0.00
2022-10-14T03:18:32.797Z,0.00
2022-10-14T03:19:32.794Z,0.00
2022-10-14T03:20:32.773Z,0.00
2022-10-14T03:21:32.808Z,0.00
2022-10-14T03:22:32.761Z,0.00
2022-10-14T03:23:32.751Z,0.00
2022-10-14T03:24:32.745Z,0.00
2022-10-14T03:25:32.740Z,0.00
2022-10-14T03:26:32.740Z,0.00
2022-10-14T03:27:32.684Z,0.00
2022-10-14T03:28:32.719Z,0.00
2022-10-14T03:29:32.674Z,0.00
2022-10-14T03:30:32.659Z,0.00
2022-10-14T03:31:32.687Z,0.00
2022-10-14T03:32:32.644Z,0.00
2022-10-14T03:33:33.854Z,0.00
2022-10-14T03:34:32.621Z,0.00
2022-10-14T03:35:32.597Z,0.00
2022-10-14T03:36:32.638Z,0.00
2022-10-14T03:37:32.573Z,0.00
2022-10-14T03:38:32.570Z,0.00
2022-10-14T03:39:32.548Z,0.00
2022-10-14T03:40:32.547Z,0.00
2022-10-14T03:41:32.577Z,0.00
2022-10-14T03:42:32.519Z,0.00
2022-10-14T03:43:32.509Z,0.00
2022-10-14T03:44:32.523Z,0.00
2022-10-14T03:45:32.481Z,0.00
2022-10-14T03:46:32.507Z,0.00
2022-10-14T03:47:32.449Z,0.00
2022-10-14T03:48:32.446Z,0.00
2022-10-14T03:49:32.454Z,0.00
2022-10-14T03:50:32.431Z,0.00
2022-10-14T03:51:32.456Z,0.00
2022-10-14T03:52:32.413Z,0.00
2022-10-14T03:53:32.395Z,0.00
2022-10-14T03:54:32.405Z,0.00
2022-10-14T03:55:32.376Z,0.00
2022-10-14T03:56:32.455Z,0.00
2022-10-14T03:57:32.364Z,0.00
2022-10-14T03:58:32.343Z,0.00
2022-10-14T03:59:32.315Z,0.00
2022-10-14T04:00:32.325Z,0.00
2022-10-14T04:01:32.447Z,0.00
2022-10-14T04:02:32.310Z,0.00
2022-10-14T04:03:32.286Z,0.00
2022-10-14T04:04:32.276Z,0.00
2022-10-14T04:05:32.259Z,0.00
2022-10-14T04:06:32.286Z,0.00
2022-10-14T04:07:32.223Z,0.00
2022-10-14T04:08:32.232Z,0.00
2022-10-14T04:09:32.218Z,0.00
2022-10-14T04:10:32.212Z,0.00
2022-10-14T04:11:32.237Z,0.00
2022-10-14T04:12:32.171Z,0.00
2022-10-14T04:13:32.161Z,0.00
2022-10-14T04:14:32.154Z,0.00
2022-10-14T04:15:32.159Z,0.00
2022-10-14T04:16:32.186Z,0.00
2022-10-14T04:17:32.104Z,0.00
2022-10-14T04:18:32.109Z,0.00
2022-10-14T04:19:32.093Z,0.00
2022-10-14T04:20:32.091Z,0.00
2022-10-14T04:21:32.121Z,0.00
2022-10-14T04:22:32.055Z,0.00
2022-10-14T04:23:32.183Z,0.00
2022-10-14T04:24:32.047Z,0.00
2022-10-14T04:25:32.039Z,0.00
2022-10-14T04:26:32.086Z,0.00
2022-10-14T04:27:32.023Z,0.00
2022-10-14T04:28:32.048Z,0.00
2022-10-14T04:29:31.988Z,0.00
2022-10-14T04:30:31.959Z,0.00
2022-10-14T04:31:32.019Z,0.00
2022-10-14T04:32:31.952Z,0.00
2022-10-14T04:33:31.951Z,0.00
2022-10-14T04:34:31.939Z,0.00
2022-10-14T04:35:31.923Z,0.00
2022-10-14T04:36:31.967Z,0.00
2022-10-14T04:37:31.912Z,0.00
2022-10-14T04:38:31.881Z,0.00
2022-10-14T04:39:31.895Z,0.00
2022-10-14T04:40:31.866Z,0.00
2022-10-14T04:41:31.921Z,0.00
2022-10-14T04:42:31.863Z,0.00
2022-10-14T04:43:31.820Z,0.00
2022-10-14T04:44:31.830Z,0.00
2022-10-14T04:45:31.812Z,0.00
2022-10-14T04:46:31.836Z,0.00
2022-10-14T04:47:31.769Z,0.00
2022-10-14T04:48:31.775Z,0.00
2022-10-14T04:49:31.755Z,0.00
2022-10-14T04:50:31.744Z,0.00
2022-10-14T04:51:31.770Z,0.00
2022-10-14T04:52:31.736Z,4.00
2022-10-14T04:53:31.731Z,4.00
2022-10-14T04:54:31.736Z,0.00
2022-10-14T04:55:31.711Z,4.00
2022-10-14T04:56:31.743Z,4.00
2022-10-14T04:57:31.674Z,4.00
2022-10-14T04:58:31.670Z,4.00
2022-10-14T04:59:31.640Z,8.00
2022-10-14T05:00:31.634Z,8.00
2022-10-14T05:01:34.109Z,12.00
2022-10-14T05:02:31.620Z,12.00
2022-10-14T05:03:31.601Z,16.00
2022-10-14T05:04:31.628Z,16.00
2022-10-14T05:05:31.579Z,20.00
2022-10-14T05:06:31.625Z,24.00
2022-10-14T05:07:31.565Z,28.00
2022-10-14T05:08:31.549Z,32.00
2022-10-14T05:09:31.555Z,36.00
2022-10-14T05:10:31.539Z,44.00
2022-10-14T05:11:31.567Z,52.00
2022-10-14T05:12:31.509Z,64.00
2022-10-14T05:13:31.493Z,72.00
2022-10-14T05:14:31.478Z,80.00
2022-10-14T05:15:31.458Z,92.00
2022-10-14T05:16:31.510Z,104.00
2022-10-14T05:17:31.439Z,116.00
2022-10-14T05:18:31.431Z,132.00
2022-10-14T05:19:31.425Z,148.00
2022-10-14T05:20:31.403Z,164.00
2022-10-14T05:21:31.452Z,176.00
2022-10-14T05:22:31.397Z,192.00
2022-10-14T05:23:31.384Z,212.00
2022-10-14T05:24:31.381Z,228.00
2022-10-14T05:25:31.361Z,244.00
2022-10-14T05:26:31.443Z,264.00
2022-10-14T05:27:31.355Z,280.00
2022-10-14T05:28:31.381Z,300.00
2022-10-14T05:29:31.297Z,324.00
2022-10-14T05:30:34.720Z,344.00
2022-10-14T05:31:31.347Z,372.00
2022-10-14T05:32:31.285Z,400.00
2022-10-14T05:33:31.281Z,424.00
2022-10-14T05:34:31.267Z,448.00
2022-10-14T05:35:57.195Z,476.00
2022-10-14T05:36:32.302Z,500.00
2022-10-14T05:37:31.223Z,528.00
2022-10-14T05:38:31.217Z,560.00
2022-10-14T05:39:31.219Z,592.00
2022-10-14T05:40:31.184Z,620.00
2022-10-14T05:41:31.219Z,656.00
2022-10-14T05:42:31.177Z,688.00
2022-10-14T05:43:32.692Z,720.00
2022-10-14T05:44:31.154Z,756.00
2022-10-14T05:45:31.130Z,792.00
2022-10-14T05:46:31.168Z,828.00
2022-10-14T05:47:31.102Z,860.00
2022-10-14T05:48:31.098Z,892.00
2022-10-14T05:49:31.080Z,924.00
2022-10-14T05:50:31.096Z,960.00
2022-10-14T05:51:31.136Z,1008.00
2022-10-14T05:52:34.057Z,1064.00
2022-10-14T05:53:31.060Z,1124.00
2022-10-14T05:54:31.028Z,1192.00
2022-10-14T05:55:31.029Z,1256.00
2022-10-14T05:56:31.072Z,1304.00
2022-10-14T05:57:31.012Z,1344.00
2022-10-14T05:58:31.000Z,1368.00
2022-10-14T05:59:30.988Z,1392.00
2022-10-14T06:00:30.962Z,1412.00
2022-10-14T06:01:31.021Z,1440.00
2022-10-14T06:02:30.946Z,1480.00
2022-10-14T06:03:31.037Z,1536.00
2022-10-14T06:04:30.931Z,1600.00
2022-10-14T06:05:30.892Z,1684.00
2022-10-14T06:06:30.946Z,1776.00
2022-10-14T06:07:30.889Z,1856.00
2022-10-14T06:08:30.893Z,1920.00
2022-10-14T06:09:30.869Z,1980.00
2022-10-14T06:10:30.842Z,2028.00
2022-10-14T06:11:30.893Z,2068.00
2022-10-14T06:12:30.861Z,2096.00
2022-10-14T06:13:30.841Z,2124.00
2022-10-14T06:14:30.793Z,2144.00
2022-10-14T06:15:30.811Z,2160.00
2022-10-14T06:16:30.837Z,2176.00
2022-10-14T06:17:30.767Z,2188.00
2022-10-14T06:18:30.754Z,2192.00
2022-10-14T06:19:30.736Z,2208.00
2022-10-14T06:20:30.757Z,2228.00
2022-10-14T06:21:30.778Z,2252.00
2022-10-14T06:22:30.701Z,2268.00
2022-10-14T06:23:30.702Z,2296.00
2022-10-14T06:24:30.680Z,2332.00
2022-10-14T06:25:30.702Z,2372.00
2022-10-14T06:26:30.758Z,2428.00
2022-10-14T06:27:30.665Z,2492.00
2022-10-14T06:28:30.741Z,2564.00
2022-10-14T06:29:30.642Z,2648.00
2022-10-14T06:30:30.640Z,2728.00
2022-10-14T06:31:32.468Z,2820.00
2022-10-14T06:32:30.621Z,2920.00
2022-10-14T06:33:30.578Z,3000.00
2022-10-14T06:34:30.594Z,3076.00
2022-10-14T06:35:30.568Z,3144.00
2022-10-14T06:36:30.599Z,3200.00
2022-10-14T06:37:30.534Z,3240.00
2022-10-14T06:38:30.525Z,3244.00
2022-10-14T06:39:30.519Z,3232.00
2022-10-14T06:40:30.510Z,3248.00
2022-10-14T06:41:30.537Z,3300.00
2022-10-14T06:42:30.485Z,3364.00
2022-10-14T06:43:30.458Z,3456.00
2022-10-14T06:44:30.475Z,3576.00
2022-10-14T06:45:30.446Z,3672.00
2022-10-14T06:46:30.489Z,3760.00
2022-10-14T06:47:30.423Z,3836.00
2022-10-14T06:48:30.412Z,3924.00
2022-10-14T06:49:30.397Z,3988.00
2022-10-14T06:50:30.407Z,4056.00
2022-10-14T06:51:30.454Z,4116.00
2022-10-14T06:52:30.395Z,4172.00
2022-10-14T06:53:30.363Z,4232.00
2022-10-14T06:54:30.369Z,4300.00
2022-10-14T06:55:30.359Z,4372.00
2022-10-14T06:56:30.386Z,4436.00
2022-10-14T06:57:30.350Z,4476.00
2022-10-14T06:58:30.306Z,4500.00
2022-10-14T06:59:30.285Z,4512.00
2022-10-14T07:00:30.298Z,4552.00
2022-10-14T07:01:30.375Z,4620.00
2022-10-14T07:02:30.273Z,4724.00
2022-10-14T07:03:30.251Z,4864.00
2022-10-14T07:04:30.257Z,5020.00
2022-10-14T07:05:30.216Z,5156.00
2022-10-14T07:06:30.268Z,5272.00
2022-10-14T07:07:30.205Z,5364.00
2022-10-14T07:08:30.186Z,5436.00
2022-10-14T07:09:30.185Z,5508.00
2022-10-14T07:10:30.177Z,5600.00
2022-10-14T07:11:30.169Z,5708.00
2022-10-14T07:12:30.201Z,5832.00
2022-10-14T07:13:30.159Z,5972.00
2022-10-14T07:14:30.126Z,6092.00
2022-10-14T07:15:35.243Z,6188.00
2022-10-14T07:16:31.121Z,6252.00
2022-10-14T07:17:30.125Z,6300.00
2022-10-14T07:18:30.056Z,6344.00
2022-10-14T07:19:30.064Z,6384.00
2022-10-14T07:20:30.036Z,6416.00
2022-10-14T07:21:30.102Z,6444.00
2022-10-14T07:22:30.045Z,6476.00
2022-10-14T07:23:30.030Z,6500.00
2022-10-14T07:24:30.024Z,6532.00
2022-10-14T07:25:30.009Z,6556.00
2022-10-14T07:26:30.047Z,6584.00
2022-10-14T07:27:29.986Z,6608.00
2022-10-14T07:28:30.018Z,6644.00
2022-10-14T07:29:29.948Z,6684.00
2022-10-14T07:30:29.949Z,6744.00
2022-10-14T07:31:29.994Z,6840.00
2022-10-14T07:32:29.935Z,6956.00
2022-10-14T07:33:29.969Z,7104.00
2022-10-14T07:34:29.905Z,7284.00
2022-10-14T07:35:29.889Z,7468.00
2022-10-14T07:36:29.916Z,7648.00
2022-10-14T07:37:29.866Z,7812.00
2022-10-14T07:38:29.855Z,7968.00
2022-10-14T07:39:29.861Z,8144.00
2022-10-14T07:40:29.827Z,8332.00
2022-10-14T07:41:29.887Z,8528.00
2022-10-14T07:42:29.835Z,8728.00
2022-10-14T07:43:29.784Z,8924.00
2022-10-14T07:44:29.799Z,9124.00
2022-10-14T07:45:29.773Z,9312.00
2022-10-14T07:46:29.825Z,9512.00
2022-10-14T07:47:29.759Z,9688.00
2022-10-14T07:48:32.785Z,9852.00
2022-10-14T07:49:30.726Z,9992.00
2022-10-14T07:50:29.712Z,10108.00
2022-10-14T07:51:29.757Z,10196.00
2022-10-14T07:52:29.688Z,10264.00
2022-10-14T07:53:29.688Z,10344.00
2022-10-14T07:54:29.678Z,10428.00
2022-10-14T07:55:29.665Z,10500.00
2022-10-14T07:56:29.722Z,10580.00
2022-10-14T07:57:29.633Z,10676.00
2022-10-14T07:58:29.628Z,10756.00
2022-10-14T07:59:29.615Z,10836.00
2022-10-14T08:00:29.636Z,10916.00
2022-10-14T08:01:29.674Z,10988.00
2022-10-14T08:02:29.591Z,11068.00
2022-10-14T08:03:29.565Z,11168.00
2022-10-14T08:04:29.542Z,11308.00
2022-10-14T08:05:38.518Z,11460.00
2022-10-14T08:06:30.587Z,11676.00
2022-10-14T08:07:29.544Z,11896.00
2022-10-14T08:08:29.507Z,12132.00
2022-10-14T08:09:29.518Z,12388.00
2022-10-14T08:10:29.477Z,12596.00
2022-10-14T08:11:29.521Z,12748.00
2022-10-14T08:12:29.467Z,12888.00
2022-10-14T08:13:29.451Z,13060.00
2022-10-14T08:14:29.451Z,13260.00
2022-10-14T08:15:29.423Z,13532.00
2022-10-14T08:16:29.457Z,13848.00
2022-10-14T08:17:29.408Z,14188.00
2022-10-14T08:18:29.408Z,14520.00
2022-10-14T08:19:29.398Z,14820.00
2022-10-14T08:20:29.386Z,15084.00
2022-10-14T08:21:29.443Z,15300.00
2022-10-14T08:22:29.339Z,15524.00
2022-10-14T08:23:29.348Z,15772.00
2022-10-14T08:24:29.319Z,16076.00
2022-10-14T08:25:29.328Z,16420.00
2022-10-14T08:26:29.376Z,16816.00
2022-10-14T08:27:29.356Z,17172.00
2022-10-14T08:28:29.437Z,17664.00
2022-10-14T08:29:29.274Z,17952.00
2022-10-14T08:30:29.272Z,18240.00
2022-10-14T08:31:29.302Z,18560.00
2022-10-14T08:32:29.257Z,18912.00
2022-10-14T08:33:29.236Z,19296.00
2022-10-14T08:34:29.240Z,19616.00
2022-10-14T08:35:29.278Z,20032.00
2022-10-14T08:36:29.239Z,20384.00
2022-10-14T08:37:29.183Z,20992.00
2022-10-14T08:38:29.161Z,21120.00
2022-10-14T08:39:29.171Z,21376.00
2022-10-14T08:40:29.148Z,21728.00
2022-10-14T08:41:29.194Z,22048.00
2022-10-14T08:42:29.130Z,22592.00
2022-10-14T08:43:29.112Z,22112.00
2022-10-14T08:44:29.106Z,22400.00
2022-10-14T08:45:29.073Z,21504.00
2022-10-14T08:46:29.105Z,21408.00
2022-10-14T08:47:29.051Z,21056.00
2022-10-14T08:48:29.074Z,21024.00
2022-10-14T08:49:29.060Z,20832.00
2022-10-14T08:50:29.025Z,20864.00
2022-10-14T08:51:29.092Z,20832.00
2022-10-14T08:52:33.516Z,21472.00
2022-10-14T08:53:30.021Z,21568.00
2022-10-14T08:54:28.989Z,21376.00
2022-10-14T08:55:29.001Z,21632.00
2022-10-14T08:56:29.036Z,22688.00
2022-10-14T08:57:28.973Z,24032.00
2022-10-14T08:58:29.165Z,24864.00
2022-10-14T08:59:28.949Z,24224.00
2022-10-14T09:00:28.943Z,25536.00
2022-10-14T09:01:28.977Z,27136.00
2022-10-14T09:02:28.911Z,25568.00
2022-10-14T09:03:28.901Z,25216.00
2022-10-14T09:04:28.931Z,25536.00
2022-10-14T09:05:28.879Z,24896.00
2022-10-14T09:06:28.889Z,25280.00
2022-10-14T09:07:28.849Z,25312.00
2022-10-14T09:08:28.821Z,27488.00
2022-10-14T09:09:28.835Z,24832.00
2022-10-14T09:10:28.801Z,24672.00
2022-10-14T09:11:33.494Z,25536.00
2022-10-14T09:12:29.796Z,25504.00
2022-10-14T09:13:28.828Z,25888.00
2022-10-14T09:14:28.756Z,25376.00
2022-10-14T09:15:28.750Z,25280.00
2022-10-14T09:16:28.762Z,25728.00
2022-10-14T09:17:31.595Z,26176.00
2022-10-14T09:18:29.720Z,25664.00
2022-10-14T09:19:28.722Z,26016.00
2022-10-14T09:20:28.706Z,28544.00
2022-10-14T09:21:34.255Z,28800.00
2022-10-14T09:22:29.662Z,27520.00
2022-10-14T09:23:28.668Z,28928.00
2022-10-14T09:24:28.655Z,30752.00
2022-10-14T09:25:28.654Z,31584.00
2022-10-14T09:26:28.704Z,31040.00
2022-10-14T09:27:28.634Z,31872.00
2022-10-14T09:28:28.656Z,29472.00
2022-10-14T09:29:28.617Z,28928.00
2022-10-14T09:30:28.600Z,29280.00
2022-10-14T09:31:28.690Z,28448.00
2022-10-14T09:32:28.614Z,28384.00
2022-10-14T09:33:28.578Z,27904.00
2022-10-14T09:34:28.569Z,27680.00
2022-10-14T09:35:28.540Z,27424.00
2022-10-14T09:36:28.585Z,39072.00
2022-10-14T09:37:28.547Z,26496.00
2022-10-14T09:38:28.487Z,26272.00
2022-10-14T09:39:28.504Z,26176.00
2022-10-14T09:40:28.466Z,27104.00
2022-10-14T09:41:28.511Z,27584.00
2022-10-14T09:42:28.502Z,26752.00
2022-10-14T09:43:28.502Z,27584.00
2022-10-14T09:44:28.413Z,27456.00
2022-10-14T09:45:28.404Z,26944.00
2022-10-14T09:46:28.451Z,28096.00
2022-10-14T09:47:28.394Z,26496.00
2022-10-14T09:48:28.397Z,24096.00
2022-10-14T09:49:28.361Z,23968.00
2022-10-14T09:50:28.387Z,22784.00
2022-10-14T09:51:28.411Z,21792.00
2022-10-14T09:52:28.343Z,25056.00
2022-10-14T09:53:28.326Z,22432.00
2022-10-14T09:54:28.329Z,26368.00
2022-10-14T09:55:28.312Z,29536.00
2022-10-14T09:56:28.377Z,23200.00
2022-10-14T09:57:28.283Z,22976.00
2022-10-14T09:58:28.261Z,26272.00
2022-10-14T09:59:28.266Z,22336.00
2022-10-14T10:00:28.255Z,31072.00
2022-10-14T10:01:28.295Z,22016.00
2022-10-14T10:02:28.224Z,32544.00
2022-10-14T10:03:28.215Z,26752.00
2022-10-14T10:04:28.207Z,21920.00
2022-10-14T10:05:28.181Z,25472.00
2022-10-14T10:06:28.224Z,24416.00
2022-10-14T10:07:28.181Z,19744.00
2022-10-14T10:08:28.174Z,18752.00
2022-10-14T10:09:28.145Z,16940.00
2022-10-14T10:10:28.139Z,15592.00
2022-10-14T10:11:28.180Z,14644.00
2022-10-14T10:12:28.108Z,20192.00
2022-10-14T10:13:28.113Z,29568.00
2022-10-14T10:14:28.067Z,27840.00
2022-10-14T10:15:28.071Z,36416.00
2022-10-14T10:16:28.096Z,33920.00
2022-10-14T10:17:28.046Z,32256.00
2022-10-14T10:18:28.042Z,29696.00
2022-10-14T10:19:28.027Z,28864.00
2022-10-14T10:20:28.029Z,28576.00
2022-10-14T10:21:28.062Z,26272.00
2022-10-14T10:22:28.004Z,29024.00
2022-10-14T10:23:28.004Z,29888.00
2022-10-14T10:24:30.859Z,30752.00
2022-10-14T10:25:27.999Z,27584.00
2022-10-14T10:26:28.014Z,30368.00
2022-10-14T10:27:27.942Z,32704.00
2022-10-14T10:28:28.001Z,30912.00
2022-10-14T10:29:27.941Z,34080.00
2022-10-14T10:30:27.912Z,37472.00
2022-10-14T10:31:28.039Z,37664.00
2022-10-14T10:32:27.889Z,34240.00
2022-10-14T10:33:27.892Z,34624.00
2022-10-14T10:34:27.874Z,36928.00
2022-10-14T10:35:27.866Z,34496.00
2022-10-14T10:36:27.901Z,36992.00
2022-10-14T10:37:27.830Z,41728.00
2022-10-14T10:38:27.842Z,38496.00
2022-10-14T10:39:27.794Z,23104.00
2022-10-14T10:40:27.814Z,34816.00
2022-10-14T10:41:27.884Z,44608.00
2022-10-14T10:42:27.764Z,44768.00
2022-10-14T10:43:27.753Z,47264.00
2022-10-14T10:44:27.822Z,40288.00
2022-10-14T10:45:28.561Z,49664.00
2022-10-14T10:46:27.780Z,19232.00
2022-10-14T10:47:27.731Z,36160.00
2022-10-14T10:48:27.711Z,44064.00
2022-10-14T10:49:27.711Z,18340.00
2022-10-14T10:50:27.693Z,42272.00
2022-10-14T10:51:27.878Z,18768.00
2022-10-14T10:52:27.926Z,17156.00
2022-10-14T10:53:27.654Z,17076.00
2022-10-14T10:54:27.650Z,19168.00
2022-10-14T10:55:27.632Z,52576.00
2022-10-14T10:56:27.666Z,54016.00
2022-10-14T10:57:27.611Z,55008.00
2022-10-14T10:58:27.626Z,53792.00
2022-10-14T10:59:27.600Z,53952.00
2022-10-14T11:00:27.592Z,54848.00
2022-10-14T11:01:27.644Z,55488.00
2022-10-14T11:02:27.543Z,55232.00
2022-10-14T11:03:27.545Z,53504.00
2022-10-14T11:04:27.530Z,38688.00
2022-10-14T11:05:27.527Z,55616.00
2022-10-14T11:06:27.500Z,49920.00
2022-10-14T11:07:28.231Z,51520.00
2022-10-14T11:08:27.556Z,38912.00
2022-10-14T11:09:27.472Z,65856.00
2022-10-14T11:10:27.489Z,70144.00
2022-10-14T11:11:27.451Z,69888.00
2022-10-14T11:12:27.474Z,71200.00
2022-10-14T11:13:29.440Z,70912.00
2022-10-14T11:14:28.445Z,71072.00
2022-10-14T11:15:27.401Z,73056.00
2022-10-14T11:16:27.405Z,74112.00
2022-10-14T11:17:27.490Z,73024.00
2022-10-14T11:18:27.393Z,70976.00
2022-10-14T11:19:27.372Z,59808.00
2022-10-14T11:20:27.367Z,53664.00
2022-10-14T11:21:27.340Z,44288.00
2022-10-14T11:22:27.378Z,29440.00
2022-10-14T11:23:27.335Z,26176.00
2022-10-14T11:24:27.309Z,30144.00
2022-10-14T11:25:27.312Z,49856.00
2022-10-14T11:26:27.348Z,49152.00
2022-10-14T11:27:27.670Z,51712.00
2022-10-14T11:28:27.326Z,49536.00
2022-10-14T11:29:27.256Z,55424.00
2022-10-14T11:30:27.262Z,58976.00
2022-10-14T11:31:27.252Z,25664.00
2022-10-14T11:32:27.286Z,68288.00
2022-10-14T11:33:27.238Z,64768.00
2022-10-14T11:34:27.208Z,51456.00
2022-10-14T11:35:27.282Z,23328.00
2022-10-14T11:36:27.187Z,19808.00
2022-10-14T11:37:27.221Z,23072.00
2022-10-14T11:38:27.231Z,44544.00
2022-10-14T11:39:28.698Z,53952.00
2022-10-14T11:40:27.148Z,68512.00
2022-10-14T11:41:27.125Z,72864.00
2022-10-14T11:42:27.156Z,73312.00
2022-10-14T11:43:27.120Z,71872.00
2022-10-14T11:44:27.152Z,75424.00
2022-10-14T11:45:27.085Z,28192.00
2022-10-14T11:46:27.083Z,25760.00
2022-10-14T11:47:27.132Z,23360.00
2022-10-14T11:48:27.069Z,24384.00
2022-10-14T11:49:27.038Z,27008.00
2022-10-14T11:50:27.019Z,23296.00
2022-10-14T11:51:29.683Z,20960.00
2022-10-14T11:52:27.073Z,19872.00
2022-10-14T11:53:27.088Z,20032.00
2022-10-14T11:54:26.982Z,21568.00
2022-10-14T11:55:26.993Z,24064.00
2022-10-14T11:56:26.965Z,24704.00
2022-10-14T11:57:26.990Z,23168.00
2022-10-14T11:58:26.971Z,22688.00
2022-10-14T11:59:26.946Z,22720.00
2022-10-14T12:01:26.897Z,25056.00
2022-10-14T12:02:27.131Z,27232.00
2022-10-14T12:03:26.877Z,29408.00
2022-10-14T12:04:26.880Z,32832.00
2022-10-14T12:05:26.851Z,29952.00
2022-10-14T12:06:26.861Z,33568.00
2022-10-14T12:07:26.918Z,47328.00
2022-10-14T12:08:28.473Z,35104.00
2022-10-14T12:09:26.896Z,39392.00
2022-10-14T12:10:26.879Z,24544.00
2022-10-14T12:11:26.831Z,19744.00
2022-10-14T12:12:26.823Z,21152.00
2022-10-14T12:13:26.869Z,23616.00
2022-10-14T12:14:26.751Z,25312.00
2022-10-14T12:15:26.840Z,22272.00
2022-10-14T12:16:26.752Z,21120.00
2022-10-14T12:17:26.770Z,20832.00
2022-10-14T12:18:26.818Z,21152.00
2022-10-14T12:19:27.096Z,20896.00
2022-10-14T12:20:26.716Z,20192.00
2022-10-14T12:21:26.681Z,19584.00
2022-10-14T12:22:26.714Z,19456.00
2022-10-14T12:23:26.670Z,19552.00
2022-10-14T12:24:26.699Z,19008.00
2022-10-14T12:25:26.626Z,18368.00
2022-10-14T12:26:26.647Z,17792.00
2022-10-14T12:27:26.711Z,16840.00